Terminal Aerodrome Forecast
Issued by NWS

Home | Current Version | Previous Version | Text Only | Print | Product List | Glossary On
Versions: 1 2 3 4 5 6 7 8 9 10 11 12 13
000
FTUS43 KIWX 290534
TAFSBN
TAF
KSBN 290534Z 2906/3006 20010KT P6SM VCSH BKN100 WS020/22045KT
     FM290800 22013KT P6SM BKN120
     FM291500 23016G26KT P6SM BKN050
     FM300000 22009KT P6SM VCSH BKN050=

USA.gov is the U.S. government's official web portal to all federal, state and local government web resources and services.